Fleetwood, New York
Current Conditions -  °F | °C
As of 10:51 PM on Friday 24 Oct 2014 (Local Time) from KLGA Reporting Station
Scattered Clouds Scattered Clouds  
Wind Chill: 60°   Ceiling: Unl
Heat Index: 60°   Visibility: 10mi
Dew Point: 43°   Wind: 12mph
Humidity: 53%   Direction: 310°NW
Pressure: 29.83"   Gusts: NA
Location:  40.9243°N, 73.8256°W
Report Text: KLGA 250251Z 31010KT 10SM SCT250 16/06 A2983 RMK AO2 SLP101 T01560061 52009
Loading
Personal Weather Stations






























Interactive Weather Map
Tropical Storm Tracking
New forecast layout! Learn more

10-Day Weather Forecast

Advertisements
Track Severe Weather on mobile